createdAt,value
2018-10-17T00:01:39.751Z,66.19
2018-10-17T00:04:08.025Z,66.80
2018-10-17T00:06:36.138Z,66.65
2018-10-17T00:09:06.178Z,67.36
2018-10-17T00:11:34.457Z,67.23
2018-10-17T00:14:02.377Z,67.30
2018-10-17T00:16:30.787Z,67.41
2018-10-17T00:18:58.933Z,67.39
2018-10-17T00:21:27.118Z,67.14
2018-10-17T00:23:55.259Z,67.92
2018-10-17T00:26:23.523Z,67.76
2018-10-17T00:28:51.826Z,68.22
2018-10-17T00:31:19.854Z,67.81
2018-10-17T00:33:47.882Z,67.56
2018-10-17T00:36:16.024Z,67.69
2018-10-17T00:38:44.247Z,67.04
2018-10-17T00:41:12.141Z,66.99
2018-10-17T00:43:40.366Z,68.22
2018-10-17T00:46:08.317Z,68.01
2018-10-17T00:48:35.994Z,67.84
2018-10-17T00:51:03.817Z,67.90
2018-10-17T00:53:31.446Z,68.65
2018-10-17T00:55:59.183Z,67.67
2018-10-17T00:58:27.435Z,67.93
2018-10-17T01:00:55.525Z,68.20
2018-10-17T01:03:23.707Z,68.18
2018-10-17T01:05:51.872Z,68.96
2018-10-17T01:08:19.603Z,67.62
2018-10-17T01:10:47.799Z,68.19
2018-10-17T01:13:16.094Z,67.77
2018-10-17T01:15:44.252Z,67.87
2018-10-17T01:18:12.293Z,67.13
2018-10-17T01:20:40.275Z,67.52
2018-10-17T01:23:08.386Z,67.97
2018-10-17T01:25:36.593Z,67.49
2018-10-17T01:28:04.740Z,69.08
2018-10-17T01:30:32.738Z,68.19
2018-10-17T01:33:00.974Z,68.13
2018-10-17T01:35:29.302Z,67.22
2018-10-17T01:37:57.563Z,68.50
2018-10-17T01:40:25.693Z,68.49
2018-10-17T01:42:53.985Z,68.12
2018-10-17T01:45:22.351Z,67.21
2018-10-17T01:47:50.482Z,68.61
2018-10-17T01:50:18.735Z,69.74
2018-10-17T01:52:46.966Z,68.71
2018-10-17T01:55:14.965Z,67.50
2018-10-17T01:57:43.147Z,67.88
2018-10-17T02:00:11.727Z,68.89
2018-10-17T02:02:40.438Z,68.87
2018-10-17T02:05:08.485Z,68.00
2018-10-17T02:07:36.739Z,68.26
2018-10-17T02:10:04.780Z,68.64
2018-10-17T02:12:33.039Z,68.28
2018-10-17T02:15:01.258Z,68.20
2018-10-17T02:17:29.359Z,69.15
2018-10-17T02:19:57.463Z,69.03
2018-10-17T02:22:25.631Z,69.73
2018-10-17T02:24:54.013Z,69.02
2018-10-17T02:27:22.291Z,69.45
2018-10-17T02:29:50.466Z,69.27
2018-10-17T02:32:18.355Z,68.87
2018-10-17T02:34:51.659Z,68.54
2018-10-17T02:37:20.235Z,68.40
2018-10-17T02:39:49.204Z,69.40
2018-10-17T02:42:17.234Z,69.27
2018-10-17T02:44:45.503Z,69.29
2018-10-17T02:47:13.899Z,70.12
2018-10-17T02:49:42.303Z,69.44
2018-10-17T02:52:10.375Z,69.80
2018-10-17T02:54:38.624Z,70.43
2018-10-17T02:57:06.927Z,69.68
2018-10-17T02:59:34.930Z,69.54
2018-10-17T03:02:03.051Z,69.26
2018-10-17T03:04:31.348Z,69.75
2018-10-17T03:06:59.642Z,69.25
2018-10-17T03:09:28.038Z,69.46
2018-10-17T03:11:56.199Z,69.73
2018-10-17T03:14:24.295Z,70.11
2018-10-17T03:16:52.726Z,71.16
2018-10-17T03:19:21.043Z,70.64
2018-10-17T03:21:49.253Z,71.04
2018-10-17T03:24:17.547Z,71.37
2018-10-17T03:26:45.624Z,71.29
2018-10-17T03:29:13.727Z,71.13
2018-10-17T03:31:42.140Z,71.66
2018-10-17T03:34:10.279Z,71.36
2018-10-17T03:36:38.789Z,71.04
2018-10-17T03:39:09.620Z,72.16
2018-10-17T03:41:37.755Z,72.23
2018-10-17T03:44:05.993Z,71.08
2018-10-17T03:46:34.544Z,72.70
2018-10-17T03:49:02.291Z,72.95
2018-10-17T03:51:30.391Z,72.98
2018-10-17T03:53:58.367Z,72.79
2018-10-17T03:56:26.798Z,73.07
2018-10-17T03:58:55.132Z,72.29
2018-10-17T04:01:23.571Z,73.02
2018-10-17T04:03:51.802Z,72.33
2018-10-17T04:06:20.444Z,71.72
2018-10-17T04:08:48.530Z,71.39
2018-10-17T04:11:16.950Z,70.67
2018-10-17T04:13:45.043Z,70.64
2018-10-17T04:16:12.972Z,70.54
2018-10-17T04:18:40.982Z,70.89
2018-10-17T04:21:08.879Z,70.57
2018-10-17T04:23:36.787Z,71.08
2018-10-17T04:26:04.863Z,70.92
2018-10-17T04:28:33.259Z,71.09
2018-10-17T04:31:01.436Z,70.71
2018-10-17T04:33:29.835Z,70.47
2018-10-17T04:35:58.304Z,70.31
2018-10-17T04:38:26.340Z,70.35
2018-10-17T04:40:54.338Z,70.25
2018-10-17T04:43:22.644Z,70.39
2018-10-17T04:45:50.862Z,72.66
2018-10-17T04:48:19.188Z,71.14
2018-10-17T04:50:47.278Z,71.79
2018-10-17T04:53:15.623Z,71.09
2018-10-17T04:55:43.515Z,70.83
2018-10-17T04:58:11.624Z,70.34
2018-10-17T05:00:39.951Z,70.93
2018-10-17T05:03:08.123Z,69.33
2018-10-17T05:05:36.219Z,69.88
2018-10-17T05:08:04.562Z,69.08
2018-10-17T05:10:32.266Z,66.42
2018-10-17T05:13:00.283Z,65.21
2018-10-17T05:15:28.538Z,64.92
2018-10-17T05:17:56.770Z,62.40
2018-10-17T05:20:25.112Z,59.86
2018-10-17T05:22:53.374Z,57.84
2018-10-17T05:25:21.595Z,57.49
2018-10-17T05:27:49.469Z,54.77
2018-10-17T05:30:17.361Z,53.61
2018-10-17T05:32:45.726Z,52.88
2018-10-17T05:35:13.779Z,53.05
2018-10-17T05:37:42.017Z,52.91
2018-10-17T05:40:10.158Z,52.15
2018-10-17T05:42:38.127Z,51.68
2018-10-17T05:45:07.034Z,51.93
2018-10-17T05:47:35.311Z,51.70
2018-10-17T05:50:03.580Z,53.34
2018-10-17T05:52:32.019Z,53.10
2018-10-17T05:55:00.362Z,53.75
2018-10-17T05:57:28.577Z,54.33
2018-10-17T05:59:57.096Z,53.75
2018-10-17T06:02:28.695Z,54.52
2018-10-17T06:04:56.891Z,55.38
2018-10-17T06:07:24.996Z,55.31
2018-10-17T06:09:53.404Z,55.79
2018-10-17T06:12:21.560Z,54.78
2018-10-17T06:14:49.554Z,54.51
2018-10-17T06:17:17.923Z,53.16
2018-10-17T06:19:46.140Z,53.41
2018-10-17T06:22:14.395Z,53.33
2018-10-17T06:24:42.711Z,52.87
2018-10-17T06:27:11.191Z,52.62
2018-10-17T06:29:39.272Z,52.89
2018-10-17T06:32:07.536Z,52.33
2018-10-17T06:34:36.067Z,53.51
2018-10-17T06:37:04.463Z,52.94
2018-10-17T06:39:32.502Z,51.53
2018-10-17T06:42:00.688Z,51.47
2018-10-17T06:44:28.708Z,51.23
2018-10-17T06:46:56.969Z,52.28
2018-10-17T06:49:25.244Z,51.90
2018-10-17T06:51:53.566Z,51.69
2018-10-17T06:54:21.755Z,51.28
2018-10-17T06:56:49.896Z,50.11
2018-10-17T06:59:18.232Z,49.71
2018-10-17T07:01:46.465Z,48.15
2018-10-17T07:04:14.484Z,47.24
2018-10-17T07:06:42.342Z,48.03
2018-10-17T07:09:10.621Z,46.75
2018-10-17T07:11:38.872Z,45.25
2018-10-17T07:14:06.995Z,44.76
2018-10-17T07:16:36.095Z,45.94
2018-10-17T07:19:04.456Z,44.52
2018-10-17T07:21:32.606Z,44.77
2018-10-17T07:24:00.647Z,45.31
2018-10-17T07:26:28.611Z,47.28
2018-10-17T07:28:57.111Z,48.89
2018-10-17T07:31:25.359Z,47.98
2018-10-17T07:33:53.611Z,47.80
2018-10-17T07:36:21.892Z,48.40
2018-10-17T07:38:49.967Z,47.87
2018-10-17T07:41:18.310Z,46.93
2018-10-17T07:43:46.488Z,45.56
2018-10-17T07:46:14.705Z,45.74
2018-10-17T07:48:42.821Z,46.18
2018-10-17T07:51:11.084Z,45.12
2018-10-17T07:53:38.817Z,44.43
2018-10-17T07:56:06.602Z,44.10
2018-10-17T07:58:34.658Z,43.47
2018-10-17T08:01:03.044Z,42.90
2018-10-17T08:03:31.335Z,42.07
2018-10-17T08:05:59.549Z,40.61
2018-10-17T08:08:27.819Z,40.76
2018-10-17T08:10:56.290Z,39.38
2018-10-17T08:13:24.395Z,43.18
2018-10-17T08:15:52.891Z,44.18
2018-10-17T08:18:21.187Z,44.63
2018-10-17T08:20:49.199Z,47.28
2018-10-17T08:23:17.463Z,47.21
2018-10-17T08:25:45.750Z,47.98
2018-10-17T08:28:14.178Z,46.99
2018-10-17T08:30:42.287Z,47.06
2018-10-17T08:33:10.595Z,46.09
2018-10-17T08:35:38.709Z,45.40
2018-10-17T08:38:06.874Z,45.07
2018-10-17T08:40:35.067Z,44.50
2018-10-17T08:43:03.235Z,44.18
2018-10-17T08:45:31.324Z,42.13
2018-10-17T08:47:59.254Z,41.77
2018-10-17T08:50:27.685Z,43.74
2018-10-17T08:52:55.737Z,43.82
2018-10-17T08:55:23.603Z,42.33
2018-10-17T08:57:51.835Z,40.65
2018-10-17T09:00:20.004Z,40.45
2018-10-17T09:02:48.067Z,38.87
2018-10-17T09:05:16.175Z,40.31
2018-10-17T09:07:44.434Z,40.26
2018-10-17T09:10:12.732Z,39.63
2018-10-17T09:12:40.931Z,37.16
2018-10-17T09:15:09.179Z,37.31
2018-10-17T09:17:37.150Z,38.07
2018-10-17T09:20:06.349Z,39.41
2018-10-17T09:22:34.765Z,40.12
2018-10-17T09:25:02.618Z,40.73
2018-10-17T09:27:30.496Z,41.35
2018-10-17T09:29:58.222Z,40.35
2018-10-17T09:32:25.966Z,40.78
2018-10-17T09:34:53.714Z,39.58
2018-10-17T09:37:21.521Z,39.60
2018-10-17T09:39:49.219Z,40.51
2018-10-17T09:42:16.991Z,40.61
2018-10-17T09:44:44.619Z,40.09
2018-10-17T09:47:12.382Z,40.33
2018-10-17T09:49:40.151Z,42.24
2018-10-17T09:52:07.879Z,41.94
2018-10-17T09:54:35.719Z,41.98
2018-10-17T09:57:03.528Z,43.47
2018-10-17T09:59:31.295Z,46.28
2018-10-17T10:01:59.019Z,46.87
2018-10-17T10:04:27.943Z,48.27
2018-10-17T10:06:55.881Z,47.88
2018-10-17T10:09:24.175Z,51.23
2018-10-17T10:11:52.170Z,51.97
2018-10-17T10:14:20.479Z,52.47
2018-10-17T10:16:48.796Z,53.95
2018-10-17T10:19:17.227Z,54.31
2018-10-17T10:21:45.524Z,57.76
2018-10-17T10:24:14.141Z,57.88
2018-10-17T10:26:42.188Z,58.37
2018-10-17T10:29:10.534Z,59.73
2018-10-17T10:31:38.875Z,58.74
2018-10-17T10:34:07.368Z,59.41
2018-10-17T10:36:35.566Z,63.96
2018-10-17T10:39:06.218Z,64.46
2018-10-17T10:41:34.579Z,63.64
2018-10-17T10:44:03.377Z,64.53
2018-10-17T10:46:31.650Z,62.78
2018-10-17T10:49:00.077Z,60.87
2018-10-17T10:51:28.323Z,59.31
2018-10-17T10:53:56.154Z,56.65
2018-10-17T10:56:23.922Z,55.89
2018-10-17T10:58:52.105Z,55.25
2018-10-17T11:01:20.065Z,55.91
2018-10-17T11:03:47.837Z,57.21
2018-10-17T11:06:15.571Z,58.26
2018-10-17T11:08:43.352Z,58.30
2018-10-17T11:11:11.239Z,56.47
2018-10-17T11:13:38.960Z,57.48
2018-10-17T11:16:06.720Z,55.40
2018-10-17T11:18:34.452Z,54.54
2018-10-17T11:21:02.234Z,56.44
2018-10-17T11:23:29.981Z,56.75
2018-10-17T11:25:57.991Z,57.00
2018-10-17T11:28:26.385Z,55.24
2018-10-17T11:30:54.408Z,55.98
2018-10-17T11:33:22.120Z,55.21
2018-10-17T11:35:49.867Z,58.36
2018-10-17T11:38:17.595Z,56.76
2018-10-17T11:40:45.902Z,57.95
2018-10-17T11:43:14.284Z,58.52
2018-10-17T11:45:42.588Z,54.22
2018-10-17T11:48:11.101Z,55.75
2018-10-17T11:50:39.366Z,56.17
2018-10-17T11:53:07.591Z,57.42
2018-10-17T11:55:35.900Z,56.96
2018-10-17T11:58:04.243Z,56.78
2018-10-17T12:00:32.056Z,58.78
2018-10-17T12:02:59.863Z,56.32
2018-10-17T12:05:28.300Z,53.03
2018-10-17T12:07:56.507Z,54.17
2018-10-17T12:10:24.804Z,52.82
2018-10-17T12:12:52.640Z,51.41
2018-10-17T12:15:20.584Z,50.53
2018-10-17T12:17:48.455Z,49.64
2018-10-17T12:20:16.316Z,49.81
2018-10-17T12:22:44.839Z,48.53
2018-10-17T12:25:13.270Z,51.25
2018-10-17T12:27:41.265Z,46.31
2018-10-17T12:30:12.511Z,48.54
2018-10-17T12:32:40.327Z,48.95
2018-10-17T12:35:08.306Z,48.38
2018-10-17T12:37:36.727Z,49.93
2018-10-17T12:40:05.639Z,46.35
2018-10-17T12:42:33.499Z,46.43
2018-10-17T12:45:01.411Z,47.30
2018-10-17T12:47:29.380Z,49.53
2018-10-17T12:49:57.240Z,47.50
2018-10-17T12:52:25.152Z,48.18
2018-10-17T12:54:53.057Z,47.74
2018-10-17T12:57:20.892Z,48.88
2018-10-17T12:59:48.771Z,49.20
2018-10-17T13:02:16.616Z,49.44
2018-10-17T13:04:44.467Z,51.93
2018-10-17T13:07:12.405Z,52.19
2018-10-17T13:09:40.234Z,51.98
2018-10-17T13:12:08.465Z,52.92
2018-10-17T13:14:36.355Z,51.53
2018-10-17T13:17:04.246Z,51.12
2018-10-17T13:19:32.105Z,51.31
2018-10-17T13:22:00.539Z,51.75
2018-10-17T13:24:28.425Z,51.35
2018-10-17T13:26:56.246Z,50.71
2018-10-17T13:29:24.112Z,49.96
2018-10-17T13:31:52.559Z,49.11
2018-10-17T13:34:20.887Z,49.45
2018-10-17T13:36:49.324Z,49.55
2018-10-17T13:39:17.551Z,49.22
2018-10-17T13:41:46.043Z,48.96
2018-10-17T13:44:14.335Z,49.84
2018-10-17T13:46:42.781Z,49.61
2018-10-17T13:49:11.195Z,49.43
2018-10-17T13:51:39.592Z,49.22
2018-10-17T13:54:07.352Z,49.68
2018-10-17T13:56:35.147Z,49.21
2018-10-17T13:59:03.046Z,48.15
2018-10-17T14:01:30.829Z,48.74
2018-10-17T14:03:58.617Z,50.46
2018-10-17T14:06:26.510Z,48.87
2018-10-17T14:08:54.331Z,48.54
2018-10-17T14:11:22.156Z,49.26
2018-10-17T14:13:49.984Z,49.36
2018-10-17T14:16:17.765Z,49.47
2018-10-17T14:18:45.538Z,48.97
2018-10-17T14:21:13.388Z,50.25
2018-10-17T14:23:41.180Z,50.24
2018-10-17T14:26:08.971Z,49.72
2018-10-17T14:28:36.814Z,49.18
2018-10-17T14:31:04.667Z,50.02
2018-10-17T14:33:32.463Z,50.83
2018-10-17T14:36:00.291Z,49.40
2018-10-17T14:38:28.097Z,49.78
2018-10-17T14:40:55.971Z,50.65
2018-10-17T14:43:23.751Z,50.77
2018-10-17T14:45:51.522Z,50.87
2018-10-17T14:48:19.382Z,49.91
2018-10-17T14:50:47.148Z,51.33
2018-10-17T14:53:15.022Z,53.46
2018-10-17T14:55:43.466Z,55.87
2018-10-17T14:58:11.775Z,56.89
2018-10-17T15:00:40.377Z,57.67
2018-10-17T15:03:08.967Z,57.97
2018-10-17T15:05:36.751Z,56.22
2018-10-17T15:08:05.235Z,56.83
2018-10-17T15:10:33.606Z,57.11
2018-10-17T15:13:02.060Z,57.63
2018-10-17T15:15:30.259Z,57.44
2018-10-17T15:17:58.768Z,59.10
2018-10-17T15:20:27.023Z,60.74
2018-10-17T15:22:55.187Z,61.17
2018-10-17T15:25:23.368Z,62.30
2018-10-17T15:27:51.419Z,62.75
2018-10-17T15:30:19.749Z,62.04
2018-10-17T15:32:47.798Z,61.95
2018-10-17T15:35:16.400Z,61.40
2018-10-17T15:37:44.756Z,60.31
2018-10-17T15:40:13.000Z,61.10
2018-10-17T15:42:40.809Z,61.68
2018-10-17T15:45:08.675Z,62.06
2018-10-17T15:47:36.405Z,61.66
2018-10-17T15:50:04.348Z,61.67
2018-10-17T15:52:32.460Z,61.60
2018-10-17T15:55:00.139Z,61.90
2018-10-17T15:57:27.858Z,61.28
2018-10-17T15:59:55.635Z,60.48
2018-10-17T16:02:23.469Z,60.02
2018-10-17T16:04:51.939Z,59.95
2018-10-17T16:07:19.719Z,59.19
2018-10-17T16:09:47.496Z,58.83
2018-10-17T16:12:15.878Z,58.76
2018-10-17T16:14:43.610Z,58.68
2018-10-17T16:17:11.752Z,57.74
2018-10-17T16:19:39.627Z,58.63
2018-10-17T16:22:07.413Z,58.14
2018-10-17T16:24:35.415Z,58.19
2018-10-17T16:27:03.246Z,58.58
2018-10-17T16:29:30.990Z,58.14
2018-10-17T16:31:58.818Z,58.19
2018-10-17T16:34:26.926Z,57.64
2018-10-17T16:36:54.716Z,58.18
2018-10-17T16:39:22.467Z,58.85
2018-10-17T16:41:50.299Z,59.62
2018-10-17T16:44:18.114Z,61.34
2018-10-17T16:46:45.849Z,60.78
2018-10-17T16:49:13.671Z,60.56
2018-10-17T16:51:41.439Z,61.75
2018-10-17T16:54:09.204Z,63.31
2018-10-17T16:56:37.521Z,62.22
2018-10-17T16:59:06.062Z,61.28
2018-10-17T17:01:34.253Z,61.98
2018-10-17T17:04:02.062Z,61.01
2018-10-17T17:06:29.847Z,61.03
2018-10-17T17:08:57.691Z,61.80
2018-10-17T17:11:25.555Z,62.05
2018-10-17T17:13:53.291Z,61.51
2018-10-17T17:16:21.150Z,61.64
2018-10-17T17:18:48.985Z,62.60
2018-10-17T17:21:17.127Z,61.27
2018-10-17T17:23:44.873Z,62.27
2018-10-17T17:26:12.691Z,62.04
2018-10-17T17:28:40.438Z,61.92
2018-10-17T17:31:08.226Z,62.39
2018-10-17T17:33:36.007Z,62.53
2018-10-17T17:36:03.913Z,62.01
2018-10-17T17:38:31.646Z,62.37
2018-10-17T17:40:59.438Z,62.58
2018-10-17T17:43:27.182Z,61.45
2018-10-17T17:45:54.955Z,61.88
2018-10-17T17:48:22.806Z,61.33
2018-10-17T17:50:50.951Z,61.16
2018-10-17T17:53:19.611Z,61.62
2018-10-17T17:55:47.961Z,62.05
2018-10-17T17:58:16.415Z,61.88
2018-10-17T18:00:44.663Z,61.20
2018-10-17T18:03:13.265Z,61.36
2018-10-17T18:05:41.641Z,61.80
2018-10-17T18:08:10.034Z,62.35
2018-10-17T18:10:37.850Z,61.70
2018-10-17T18:13:05.675Z,61.10
2018-10-17T18:15:33.484Z,61.63
2018-10-17T18:18:01.275Z,62.55
2018-10-17T18:20:29.018Z,63.15
2018-10-17T18:22:57.505Z,62.50
2018-10-17T18:25:25.834Z,62.12
2018-10-17T18:27:54.705Z,63.38
2018-10-17T18:30:22.462Z,63.30
2018-10-17T18:32:50.273Z,64.70
2018-10-17T18:35:18.493Z,64.52
2018-10-17T18:37:46.995Z,64.18
2018-10-17T18:40:15.205Z,64.81
2018-10-17T18:42:43.531Z,65.28
2018-10-17T18:45:11.823Z,66.21
2018-10-17T18:47:40.356Z,65.87
2018-10-17T18:50:08.734Z,67.49
2018-10-17T18:52:38.134Z,66.79
2018-10-17T18:55:07.176Z,66.89
2018-10-17T18:57:35.504Z,66.30
2018-10-17T19:00:04.106Z,66.62
2018-10-17T19:02:32.642Z,66.48
2018-10-17T19:05:00.877Z,65.11
2018-10-17T19:07:29.380Z,63.79
2018-10-17T19:09:57.679Z,63.50
2018-10-17T19:12:25.464Z,61.95
2018-10-17T19:14:53.260Z,62.07
2018-10-17T19:17:21.127Z,62.94
2018-10-17T19:19:48.957Z,61.87
2018-10-17T19:22:16.756Z,61.61
2018-10-17T19:24:44.661Z,61.01
2018-10-17T19:27:12.543Z,60.29
2018-10-17T19:29:40.275Z,60.80
2018-10-17T19:32:08.210Z,61.69
2018-10-17T19:34:35.982Z,61.03
2018-10-17T19:37:03.793Z,61.56
2018-10-17T19:39:31.652Z,62.04
2018-10-17T19:42:00.193Z,62.29
2018-10-17T19:44:28.361Z,61.89
2018-10-17T19:46:56.778Z,63.00
2018-10-17T19:49:25.436Z,63.20
2018-10-17T19:51:53.842Z,63.28
2018-10-17T19:54:22.207Z,64.48
2018-10-17T19:56:50.590Z,63.86
2018-10-17T19:59:19.072Z,64.35
2018-10-17T20:01:47.368Z,63.77
2018-10-17T20:04:15.796Z,63.22
2018-10-17T20:06:44.092Z,62.96
2018-10-17T20:09:12.697Z,62.85
2018-10-17T20:11:40.885Z,61.62
2018-10-17T20:14:09.459Z,62.35
2018-10-17T20:16:37.574Z,62.51
2018-10-17T20:19:06.108Z,62.27
2018-10-17T20:21:34.368Z,61.60
2018-10-17T20:24:02.276Z,62.05
2018-10-17T20:26:30.057Z,61.67
2018-10-17T20:28:58.380Z,62.16
2018-10-17T20:31:26.743Z,62.22
2018-10-17T20:33:55.116Z,62.00
2018-10-17T20:36:23.414Z,61.61
2018-10-17T20:38:51.897Z,62.41
2018-10-17T20:41:20.178Z,62.34
2018-10-17T20:43:48.623Z,62.39
2018-10-17T20:46:16.973Z,61.98
2018-10-17T20:48:45.393Z,63.12
2018-10-17T20:51:13.647Z,62.89
2018-10-17T20:53:42.218Z,63.05
2018-10-17T20:56:10.439Z,63.83
2018-10-17T20:58:38.895Z,63.56
2018-10-17T21:01:06.728Z,62.90
2018-10-17T21:03:35.056Z,63.71
2018-10-17T21:06:03.554Z,63.51
2018-10-17T21:08:31.863Z,62.94
2018-10-17T21:11:00.309Z,62.94
2018-10-17T21:13:28.565Z,61.92
2018-10-17T21:15:57.085Z,62.75
2018-10-17T21:18:25.397Z,62.71
2018-10-17T21:20:53.795Z,62.20
2018-10-17T21:23:21.595Z,62.54
2018-10-17T21:25:49.360Z,63.51
2018-10-17T21:28:17.109Z,63.01
2018-10-17T21:30:44.936Z,63.85
2018-10-17T21:33:12.714Z,63.74
2018-10-17T21:35:40.477Z,63.70
2018-10-17T21:38:08.302Z,63.61
2018-10-17T21:40:36.107Z,63.76
2018-10-17T21:43:04.161Z,64.01
2018-10-17T21:45:31.983Z,64.90
2018-10-17T21:47:59.772Z,65.98
2018-10-17T21:50:27.562Z,65.96
2018-10-17T21:52:55.377Z,65.99
2018-10-17T21:55:23.170Z,65.92
2018-10-17T21:57:51.141Z,65.64
2018-10-17T22:00:19.031Z,66.52
2018-10-17T22:02:46.822Z,66.72
2018-10-17T22:05:15.202Z,67.81
2018-10-17T22:07:43.514Z,67.64
2018-10-17T22:10:11.945Z,67.17
2018-10-17T22:12:40.410Z,67.39
2018-10-17T22:15:09.344Z,68.96
2018-10-17T22:17:37.773Z,69.80
2018-10-17T22:20:06.653Z,69.02
2018-10-17T22:22:34.827Z,69.80
2018-10-17T22:25:03.283Z,69.39
2018-10-17T22:27:31.508Z,68.96
2018-10-17T22:30:00.084Z,67.69
2018-10-17T22:32:28.271Z,67.71
2018-10-17T22:34:56.904Z,68.29
2018-10-17T22:37:24.984Z,68.91
2018-10-17T22:39:53.383Z,69.50
2018-10-17T22:42:21.542Z,69.49
2018-10-17T22:44:49.619Z,69.99
2018-10-17T22:47:17.984Z,69.79
2018-10-17T22:49:46.207Z,70.82
2018-10-17T22:52:14.519Z,70.51
2018-10-17T22:54:42.919Z,70.88
2018-10-17T22:57:11.219Z,71.44
2018-10-17T22:59:39.135Z,71.90
2018-10-17T23:02:07.363Z,71.84
2018-10-17T23:04:35.631Z,71.62
2018-10-17T23:07:04.176Z,71.88
2018-10-17T23:09:32.406Z,70.99
2018-10-17T23:12:00.670Z,70.77
2018-10-17T23:14:28.989Z,69.46
2018-10-17T23:16:57.240Z,68.88
2018-10-17T23:19:25.484Z,68.71
2018-10-17T23:21:53.831Z,69.49
2018-10-17T23:24:22.049Z,68.66
2018-10-17T23:26:50.273Z,67.50
2018-10-17T23:29:18.623Z,67.85
2018-10-17T23:31:46.883Z,68.25
2018-10-17T23:34:15.388Z,68.52
2018-10-17T23:36:43.673Z,67.10
2018-10-17T23:39:11.895Z,66.23
2018-10-17T23:41:40.463Z,66.67
2018-10-17T23:44:08.801Z,67.58
2018-10-17T23:46:37.141Z,66.64
2018-10-17T23:49:05.560Z,66.48
2018-10-17T23:51:33.928Z,66.19
2018-10-17T23:54:02.187Z,65.80
2018-10-17T23:56:30.407Z,65.90
2018-10-17T23:58:58.758Z,64.64
